Time;durP1;ratioP1;P1;durP2;ratioP2;P2;SDS_P1;SDS_P2;PMS_P1;PMS_P2;Temp;Humidity;BMP_temperature;BMP_pressure;BME280_temperature;BME280_humidity;BME280_pressure;Samples;Min_cycle;Max_cycle;Signal;HPM_P1;HPM_P2
2022/06/13 00:01:58;;;;;;;18.00;4.57;;;15.30;34.60;;;;;;5069683;28;20905;-69
2022/06/13 00:04:23;;;;;;;12.87;4.27;;;15.20;35.40;;;;;;5064164;28;20754;-69
2022/06/13 00:06:49;;;;;;;12.43;4.80;;;15.20;35.60;;;;;;5054074;28;20408;-68
2022/06/13 00:09:15;;;;;;;12.60;4.20;;;15.40;35.80;;;;;;5044995;28;20412;-69
2022/06/13 00:11:41;;;;;;;10.77;4.80;;;15.40;35.20;;;;;;5055765;28;20392;-69
2022/06/13 00:14:08;;;;;;;14.25;4.30;;;15.40;35.20;;;;;;5057806;28;20493;-69
2022/06/13 00:16:34;;;;;;;16.23;4.72;;;15.40;35.10;;;;;;5052249;28;20401;-70
2022/06/13 00:18:59;;;;;;;14.30;4.70;;;15.40;35.20;;;;;;5061656;28;20582;-69
2022/06/13 00:21:33;;;;;;;14.20;4.80;;;15.30;35.80;;;;;;5065457;28;20424;-69
2022/06/13 00:24:01;;;;;;;13.65;4.93;;;15.20;36.30;;;;;;5049831;28;20440;-70
2022/06/13 00:26:29;;;;;;;16.33;4.90;;;15.20;37.00;;;;;;5051965;28;20400;-70
2022/06/13 00:28:56;;;;;;;13.07;4.60;;;15.10;37.00;;;;;;5046227;28;20397;-68
2022/06/13 00:31:22;;;;;;;16.92;4.90;;;15.10;37.30;;;;;;5060219;28;20407;-68
2022/06/13 00:33:49;;;;;;;13.68;4.93;;;15.10;37.40;;;;;;5070034;28;20527;-68
2022/06/13 00:36:15;;;;;;;10.07;4.70;;;15.10;37.80;;;;;;5053931;28;20456;-68
2022/06/13 00:38:41;;;;;;;14.30;5.00;;;15.00;38.40;;;;;;5043851;28;20743;-69
2022/06/13 00:41:09;;;;;;;12.75;5.07;;;14.90;39.50;;;;;;5071730;28;20383;-67
2022/06/13 00:43:37;;;;;;;13.07;4.80;;;14.70;40.90;;;;;;5049432;28;20412;-69
2022/06/13 00:46:25;;;;;;;16.53;5.00;;;14.60;42.40;;;;;;5054105;28;20868;-69
2022/06/13 00:49:01;;;;;;;12.93;5.45;;;14.60;42.10;;;;;;5059171;28;20385;-70
2022/06/13 00:51:29;;;;;;;14.63;5.35;;;14.40;44.10;;;;;;5054720;28;20385;-69
2022/06/13 00:53:54;;;;;;;10.68;4.95;;;14.30;45.30;;;;;;5053918;28;20399;-68
2022/06/13 00:56:23;;;;;;;14.55;5.00;;;14.30;45.90;;;;;;5055484;28;20801;-68
2022/06/13 00:58:55;;;;;;;9.95;4.80;;;14.20;46.10;;;;;;5059044;28;20630;-68
2022/06/13 01:01:22;;;;;;;15.20;5.07;;;14.10;48.10;;;;;;5053328;28;20700;-69
2022/06/13 01:03:48;;;;;;;10.65;4.88;;;13.90;50.00;;;;;;5053736;28;20413;-68
2022/06/13 01:06:14;;;;;;;17.97;6.30;;;13.80;51.30;;;;;;5072046;22;20428;-79
2022/06/13 01:08:40;;;;;;;14.30;5.50;;;13.70;51.50;;;;;;5063338;28;20403;-79
2022/06/13 01:11:18;;;;;;;14.57;5.00;;;13.80;51.50;;;;;;5072870;28;20429;-79
2022/06/13 01:14:20;;;;;;;15.50;5.00;;;13.90;49.70;;;;;;5085445;28;20396;-79
2022/06/13 01:16:53;;;;;;;13.23;5.13;;;13.80;50.80;;;;;;5069539;28;20398;-79
2022/06/13 01:19:57;;;;;;;11.18;4.30;;;13.60;52.80;;;;;;5082933;28;20411;-80
2022/06/13 01:23:11;;;;;;;10.05;5.00;;;13.50;54.90;;;;;;5079617;28;20409;-80
2022/06/13 01:25:55;;;;;;;17.58;5.65;;;13.60;53.20;;;;;;5068550;28;20400;-80
2022/06/13 01:28:40;;;;;;;14.45;5.40;;;13.70;54.00;;;;;;5050179;28;20397;-79
2022/06/13 01:31:45;;;;;;;15.87;5.20;;;13.80;52.70;;;;;;5057244;28;20382;-80
2022/06/13 01:34:50;;;;;;;16.37;5.57;;;13.70;53.30;;;;;;5053533;28;20495;-80
2022/06/13 01:37:57;;;;;;;12.23;5.90;;;13.50;54.90;;;;;;5068842;28;20402;-81
2022/06/13 01:40:31;;;;;;;14.50;6.13;;;13.50;56.00;;;;;;5040152;28;20416;-80
2022/06/13 01:43:19;;;;;;;13.55;5.30;;;13.60;54.70;;;;;;5060427;28;20431;-80
2022/06/13 01:46:05;;;;;;;13.70;6.20;;;13.60;55.40;;;;;;5077842;28;20455;-79
2022/06/13 01:48:53;;;;;;;12.50;5.70;;;13.70;53.80;;;;;;5073345;28;20388;-79
2022/06/13 01:51:45;;;;;;;11.88;5.50;;;13.70;54.60;;;;;;5091418;28;20418;-81
2022/06/13 01:54:30;;;;;;;11.63;5.05;;;13.70;55.90;;;;;;5048449;28;20467;-80
2022/06/13 01:57:00;;;;;;;15.23;6.03;;;13.60;56.70;;;;;;5068207;28;20407;-80
2022/06/13 01:59:36;;;;;;;12.80;6.05;;;13.70;57.70;;;;;;5052356;28;20400;-78
2022/06/13 02:02:10;;;;;;;12.68;6.38;;;13.70;57.70;;;;;;5045999;28;20440;-81
2022/06/13 02:04:59;;;;;;;13.32;6.10;;;13.80;57.00;;;;;;5055050;28;20387;-80
2022/06/13 02:07:31;;;;;;;14.00;6.80;;;13.80;55.80;;;;;;5070699;28;20485;-78
2022/06/13 02:10:06;;;;;;;10.88;5.97;;;13.90;56.00;;;;;;5060038;28;20390;-78
2022/06/13 02:12:35;;;;;;;10.83;5.83;;;13.90;54.90;;;;;;5061867;28;20448;-79
2022/06/13 02:15:08;;;;;;;14.40;6.35;;;13.80;55.00;;;;;;5045195;28;20384;-81
2022/06/13 02:17:44;;;;;;;13.68;6.90;;;13.80;55.70;;;;;;5069030;28;20399;-81
2022/06/13 02:20:15;;;;;;;13.35;6.00;;;13.80;55.70;;;;;;5069754;28;20411;-81
2022/06/13 02:22:42;;;;;;;16.10;6.18;;;13.80;56.00;;;;;;5057757;28;20412;-80
2022/06/13 02:25:17;;;;;;;16.08;6.57;;;13.80;56.50;;;;;;5057006;28;20422;-80
2022/06/13 02:27:45;;;;;;;13.57;6.65;;;13.80;56.80;;;;;;5040347;28;20387;-80
2022/06/13 02:30:18;;;;;;;12.65;6.30;;;13.70;57.10;;;;;;5027378;28;20465;-78
2022/06/13 02:32:56;;;;;;;11.70;6.07;;;13.70;58.20;;;;;;5037619;28;20411;-81
2022/06/13 02:35:32;;;;;;;14.23;6.50;;;13.70;58.80;;;;;;5030168;28;20775;-80
2022/06/13 02:38:10;;;;;;;17.02;6.70;;;13.60;58.60;;;;;;5069901;28;20390;-80
2022/06/13 02:40:45;;;;;;;14.13;6.63;;;13.60;58.60;;;;;;5027546;28;20395;-81
2022/06/13 02:43:36;;;;;;;11.30;6.53;;;13.60;59.30;;;;;;5050205;28;20388;-79
2022/06/13 02:46:14;;;;;;;18.40;8.73;;;13.60;59.50;;;;;;5058033;28;21003;-81
2022/06/13 02:48:49;;;;;;;17.85;7.28;;;13.60;59.40;;;;;;5045673;28;20433;-86
2022/06/13 02:51:27;;;;;;;15.43;6.68;;;13.60;59.20;;;;;;5060742;28;20821;-79
2022/06/13 02:54:28;;;;;;;13.07;6.40;;;13.60;59.80;;;;;;5072992;28;20412;-80
2022/06/13 02:59:56;;;;;;;15.30;6.60;;;13.80;58.30;;;;;;5038999;28;20390;-77
2022/06/13 03:02:45;;;;;;;14.13;6.13;;;13.80;57.30;;;;;;5040519;28;20814;-78
2022/06/13 03:05:33;;;;;;;12.80;6.38;;;13.90;56.60;;;;;;5039135;28;20409;-79
2022/06/13 03:08:09;;;;;;;10.75;5.85;;;13.90;57.10;;;;;;5018103;28;20401;-80
2022/06/13 03:10:57;;;;;;;9.00;5.38;;;13.80;58.00;;;;;;5062181;28;20822;-80
2022/06/13 03:13:42;;;;;;;13.30;5.60;;;13.90;58.30;;;;;;5060998;28;20428;-80
2022/06/13 03:16:40;;;;;;;13.10;6.97;;;14.00;58.40;;;;;;5043525;28;20397;-80
2022/06/13 03:19:15;;;;;;;12.40;5.90;;;14.10;56.30;;;;;;5032821;28;20872;-80
2022/06/13 03:22:10;;;;;;;17.27;6.80;;;14.10;56.40;;;;;;5053292;28;20399;-80
2022/06/13 03:25:10;;;;;;;16.97;6.50;;;14.20;54.20;;;;;;5065861;28;20431;-78
2022/06/13 03:27:47;;;;;;;18.63;6.70;;;14.40;52.20;;;;;;5054395;28;20461;-80
2022/06/13 03:30:20;;;;;;;15.40;5.77;;;14.40;51.60;;;;;;5048857;28;20389;-80
2022/06/13 03:35:40;;;;;;;12.18;6.40;;;14.50;54.10;;;;;;5048352;28;20385;-81
2022/06/13 03:38:10;;;;;;;17.50;6.07;;;14.50;53.80;;;;;;5043542;28;20889;-81
2022/06/13 03:40:39;;;;;;;15.13;6.22;;;14.50;54.00;;;;;;5040135;28;20415;-81
2022/06/13 03:43:11;;;;;;;14.57;6.70;;;14.50;53.90;;;;;;5066817;28;20395;-79
2022/06/13 03:45:59;;;;;;;10.75;5.60;;;14.60;52.90;;;;;;5020827;28;20462;-78
2022/06/13 03:48:33;;;;;;;11.60;5.45;;;14.60;54.40;;;;;;5041542;28;20483;-78
2022/06/13 03:51:04;;;;;;;15.40;6.20;;;14.60;55.80;;;;;;5039130;28;20427;-79
2022/06/13 03:53:32;;;;;;;10.75;5.68;;;14.60;56.70;;;;;;5083902;28;20384;-78
2022/06/13 03:56:07;;;;;;;9.27;6.00;;;14.60;56.70;;;;;;5087388;28;20478;-79
2022/06/13 03:58:38;;;;;;;16.38;6.40;;;14.70;55.70;;;;;;5048390;28;20390;-78
2022/06/13 04:01:22;;;;;;;14.43;6.50;;;14.60;55.50;;;;;;5063171;28;20438;-79
2022/06/13 04:03:48;;;;;;;10.32;5.70;;;14.60;55.50;;;;;;5060804;28;20411;-77
2022/06/13 04:06:38;;;;;;;14.10;5.80;;;14.70;56.50;;;;;;5058730;28;20420;-79
2022/06/13 04:09:20;;;;;;;14.68;6.03;;;14.70;55.60;;;;;;5062673;28;20389;-79
2022/06/13 04:12:10;;;;;;;11.25;6.20;;;14.70;55.70;;;;;;5060072;28;20382;-79
2022/06/13 04:15:08;;;;;;;15.43;6.22;;;14.70;55.70;;;;;;5039031;28;20389;-81
2022/06/13 04:18:04;;;;;;;13.40;6.40;;;14.80;54.60;;;;;;5050425;28;20409;-78
2022/06/13 04:20:55;;;;;;;17.65;6.40;;;14.90;53.20;;;;;;5060775;28;20374;-79
2022/06/13 04:23:32;;;;;;;19.45;6.30;;;14.90;52.60;;;;;;5043395;28;20412;-80
2022/06/13 04:25:58;;;;;;;11.07;6.25;;;15.00;52.20;;;;;;5061537;28;20459;-79
2022/06/13 04:28:26;;;;;;;11.40;5.80;;;15.10;51.30;;;;;;5077202;28;20383;-79
2022/06/13 04:30:54;;;;;;;15.77;5.40;;;15.20;50.90;;;;;;5080392;28;20500;-78
2022/06/13 04:33:26;;;;;;;17.42;7.20;;;15.20;52.50;;;;;;5081434;28;20529;-80
2022/06/13 04:35:53;;;;;;;14.55;6.05;;;15.30;51.80;;;;;;5070652;28;20928;-78
2022/06/13 04:38:21;;;;;;;32.45;7.43;;;15.60;51.30;;;;;;5056877;28;20390;-79
2022/06/13 04:40:59;;;;;;;25.88;8.70;;;15.70;55.00;;;;;;5056964;28;20502;-80
2022/06/13 04:43:33;;;;;;;22.40;8.90;;;15.30;63.90;;;;;;5059005;28;20474;-82
2022/06/13 04:46:08;;;;;;;20.60;9.37;;;14.90;74.60;;;;;;5065065;28;20413;-81
2022/06/13 04:48:36;;;;;;;19.80;8.95;;;14.60;74.90;;;;;;5042514;28;20909;-76
2022/06/13 04:51:07;;;;;;;25.88;11.15;;;14.50;78.60;;;;;;5045162;28;20413;-77
2022/06/13 04:53:56;;;;;;;22.00;10.23;;;14.40;84.90;;;;;;5030021;28;20412;-77
2022/06/13 04:56:23;;;;;;;27.25;11.13;;;14.40;91.80;;;;;;5039354;28;20843;-77
2022/06/13 04:58:52;;;;;;;25.33;10.85;;;14.50;97.00;;;;;;5049474;28;21143;-76
2022/06/13 05:01:55;;;;;;;24.48;9.95;;;14.50;99.90;;;;;;5048952;28;20402;-76
2022/06/13 05:04:26;;;;;;;28.30;11.00;;;14.60;99.30;;;;;;5047196;28;20411;-77
2022/06/13 05:06:54;;;;;;;27.95;10.10;;;14.70;95.60;;;;;;5048880;28;20417;-77
2022/06/13 05:09:27;;;;;;;18.98;9.07;;;14.90;92.00;;;;;;5055594;28;20409;-77
2022/06/13 05:12:06;;;;;;;21.10;10.05;;;15.00;91.60;;;;;;5052579;28;20409;-76
2022/06/13 05:14:31;;;;;;;23.40;9.85;;;15.10;92.50;;;;;;5045951;28;20434;-78
2022/06/13 05:17:27;;;;;;;22.70;10.97;;;15.20;87.70;;;;;;5047311;28;20490;-77
2022/06/13 05:19:59;;;;;;;23.40;9.40;;;15.40;87.60;;;;;;5050243;28;20496;-76
2022/06/13 05:22:27;;;;;;;22.05;9.40;;;15.40;87.30;;;;;;5046408;28;20415;-77
2022/06/13 05:24:59;;;;;;;22.40;9.27;;;15.40;85.40;;;;;;5052988;28;20765;-77
2022/06/13 05:27:24;;;;;;;21.17;9.30;;;15.50;81.90;;;;;;5051881;28;20495;-77
2022/06/13 05:29:50;;;;;;;21.60;9.27;;;15.40;82.50;;;;;;5030254;28;20547;-77
2022/06/13 05:32:21;;;;;;;20.80;9.30;;;15.50;83.60;;;;;;5046469;28;20410;-76
2022/06/13 05:34:48;;;;;;;20.90;9.57;;;15.70;82.70;;;;;;5047360;28;20406;-76
2022/06/13 05:37:15;;;;;;;22.55;9.18;;;15.90;81.80;;;;;;5048874;28;20730;-75
2022/06/13 05:39:41;;;;;;;20.35;8.65;;;16.10;78.90;;;;;;5041419;28;20403;-74
2022/06/13 05:42:07;;;;;;;22.50;9.37;;;16.30;77.50;;;;;;5046078;28;20492;-76
2022/06/13 05:44:32;;;;;;;25.50;8.65;;;16.50;73.40;;;;;;5046570;28;20440;-77
2022/06/13 05:46:58;;;;;;;15.68;8.18;;;16.50;60.80;;;;;;5033522;28;20384;-75
2022/06/13 05:49:24;;;;;;;22.50;7.45;;;16.80;58.50;;;;;;5054323;28;20402;-75
2022/06/13 05:51:50;;;;;;;18.13;7.93;;;17.00;54.30;;;;;;5051250;28;20398;-85
2022/06/13 05:54:16;;;;;;;16.50;7.25;;;17.10;53.60;;;;;;5060854;28;20420;-78
2022/06/13 05:59:17;;;;;;;19.05;9.13;;;17.00;50.70;;;;;;5491887;22;20432;-79
2022/06/13 06:01:42;;;;;;;23.13;8.60;;;17.00;55.30;;;;;;5083213;28;20412;-82
2022/06/13 06:04:08;;;;;;;24.63;9.10;;;16.80;52.00;;;;;;5089272;28;20408;-79
2022/06/13 06:06:36;;;;;;;27.70;10.40;;;16.80;56.70;;;;;;5076426;28;20408;-77
2022/06/13 06:09:02;;;;;;;28.80;10.50;;;16.70;59.60;;;;;;5051293;28;20782;-77
2022/06/13 06:11:29;;;;;;;27.48;10.38;;;16.40;60.10;;;;;;5055813;28;20897;-77
2022/06/13 06:13:55;;;;;;;20.88;9.60;;;16.00;63.30;;;;;;5046033;28;20406;-76
2022/06/13 06:16:23;;;;;;;29.58;10.00;;;15.90;68.30;;;;;;5059313;28;20401;-77
2022/06/13 06:18:50;;;;;;;52.88;28.35;;;15.90;62.30;;;;;;5053624;28;20475;-75
2022/06/13 06:21:16;;;;;;;81.78;46.38;;;16.00;60.50;;;;;;5056102;28;20407;-75
2022/06/13 06:23:42;;;;;;;17.92;9.10;;;16.20;62.30;;;;;;5049047;28;20423;-74
2022/06/13 06:26:09;;;;;;;146.53;95.07;;;16.40;51.00;;;;;;5057798;28;20404;-86
2022/06/13 06:28:35;;;;;;;207.25;122.95;;;16.50;52.30;;;;;;5063104;28;20569;-81
2022/06/13 06:31:03;;;;;;;44.90;23.43;;;16.60;55.10;;;;;;5060365;28;20607;-81
2022/06/13 06:33:28;;;;;;;60.38;31.17;;;16.70;55.20;;;;;;5066055;28;20767;-79
2022/06/13 06:35:54;;;;;;;31.00;15.90;;;16.70;55.30;;;;;;5074824;28;20466;-78
2022/06/13 06:38:22;;;;;;;32.08;15.80;;;16.70;53.90;;;;;;5059559;28;20470;-76
2022/06/13 06:40:48;;;;;;;37.70;16.90;;;16.70;50.70;;;;;;5062523;28;20416;-76
2022/06/13 06:43:14;;;;;;;74.97;43.15;;;16.60;51.50;;;;;;5068330;28;20893;-79
2022/06/13 06:45:42;;;;;;;21.45;10.35;;;16.40;56.60;;;;;;5055009;28;20496;-79
2022/06/13 06:48:13;;;;;;;22.63;9.77;;;16.40;57.50;;;;;;5057532;28;20420;-80
2022/06/13 06:50:41;;;;;;;16.38;9.18;;;16.50;54.20;;;;;;5065477;28;20395;-79
2022/06/13 06:53:06;;;;;;;17.60;8.85;;;16.90;53.10;;;;;;5059763;28;20874;-80
2022/06/13 07:01:04;;;;;;;22.92;9.85;;;17.80;48.20;;;;;;5058394;28;20535;-79
2022/06/13 07:03:30;;;;;;;25.10;9.60;;;17.80;45.00;;;;;;5067732;28;20418;-79
2022/06/13 07:05:56;;;;;;;26.23;10.32;;;17.80;46.30;;;;;;5052411;28;20917;-80
2022/06/13 07:08:22;;;;;;;21.27;9.90;;;17.80;42.60;;;;;;5058346;28;20413;-77
2022/06/13 07:10:50;;;;;;;25.37;10.20;;;17.90;42.60;;;;;;5054343;28;20463;-77
2022/06/13 07:13:18;;;;;;;21.77;9.77;;;18.10;40.80;;;;;;5040134;28;20433;-77
2022/06/13 07:15:46;;;;;;;21.50;10.45;;;18.10;41.70;;;;;;5055999;28;20412;-75
2022/06/13 07:18:11;;;;;;;25.38;10.95;;;18.00;43.90;;;;;;5038929;28;20906;-77
2022/06/13 07:20:38;;;;;;;21.58;10.40;;;17.70;43.90;;;;;;5043903;28;20412;-77
2022/06/13 07:23:04;;;;;;;24.23;10.82;;;17.50;45.30;;;;;;5032330;28;20426;-76
2022/06/13 07:25:31;;;;;;;26.02;12.07;;;17.30;47.50;;;;;;5060519;28;20801;-76
2022/06/13 07:27:57;;;;;;;25.38;11.88;;;17.50;50.00;;;;;;5034038;28;20417;-77
2022/06/13 07:30:26;;;;;;;28.67;12.97;;;17.60;48.50;;;;;;5062524;28;20509;-80
2022/06/13 07:32:54;;;;;;;28.40;13.17;;;17.80;45.40;;;;;;5056115;28;20404;-74
2022/06/13 07:35:22;;;;;;;30.60;12.90;;;17.80;45.10;;;;;;5047816;28;20440;-76
2022/06/13 07:40:36;;;;;;;24.13;12.65;;;18.40;42.20;;;;;;5049086;28;20461;-84
2022/06/13 07:43:03;;;;;;;27.58;13.88;;;18.60;42.60;;;;;;5062277;28;20778;-81
2022/06/13 07:45:34;;;;;;;23.65;12.15;;;18.60;41.70;;;;;;5066244;28;20419;-80
2022/06/13 07:48:02;;;;;;;29.75;13.63;;;18.70;41.40;;;;;;5060256;28;20552;-82
2022/06/13 07:50:28;;;;;;;29.48;14.18;;;18.60;41.50;;;;;;5056159;28;20409;-81
2022/06/13 07:52:54;;;;;;;26.92;13.70;;;18.70;40.40;;;;;;5067008;28;20392;-82
2022/06/13 07:55:22;;;;;;;32.45;14.15;;;18.90;39.60;;;;;;5060515;28;20431;-77
2022/06/13 07:57:48;;;;;;;27.30;15.45;;;19.40;39.30;;;;;;5057154;28;20423;-77
2022/06/13 08:00:25;;;;;;;35.17;14.88;;;19.60;38.60;;;;;;5046406;28;20471;-77
2022/06/13 08:02:51;;;;;;;28.38;15.60;;;19.70;36.90;;;;;;5017960;28;20460;-77
2022/06/13 08:05:17;;;;;;;29.92;17.20;;;19.10;37.70;;;;;;5046888;28;20403;-77
2022/06/13 08:07:43;;;;;;;36.40;16.25;;;19.00;39.80;;;;;;5059388;28;20406;-79
2022/06/13 08:10:10;;;;;;;34.00;16.05;;;18.90;38.50;;;;;;5052175;28;20389;-80
2022/06/13 08:12:38;;;;;;;33.25;15.00;;;18.90;39.80;;;;;;5065229;28;20795;-78
2022/06/13 08:15:04;;;;;;;32.90;15.32;;;19.10;36.60;;;;;;5060792;28;20412;-78
2022/06/13 08:17:30;;;;;;;23.83;14.23;;;19.60;36.40;;;;;;5063286;28;20813;-79
2022/06/13 08:19:56;;;;;;;32.10;14.90;;;19.60;33.30;;;;;;5060189;28;20426;-78
2022/06/13 08:22:22;;;;;;;31.90;14.23;;;19.50;36.60;;;;;;5053965;28;20497;-79
2022/06/13 08:24:47;;;;;;;25.98;13.57;;;19.40;37.70;;;;;;5070551;28;20395;-79
2022/06/13 08:27:13;;;;;;;29.90;13.45;;;19.00;34.50;;;;;;5063183;28;20402;-78
2022/06/13 08:29:38;;;;;;;21.23;11.63;;;19.00;32.30;;;;;;5053393;28;20428;-79
2022/06/13 08:32:05;;;;;;;27.60;11.73;;;19.20;33.30;;;;;;5064544;28;20408;-77
2022/06/13 08:34:30;;;;;;;22.13;10.40;;;19.30;33.80;;;;;;5065066;28;20407;-81
2022/06/13 08:36:56;;;;;;;26.33;11.40;;;19.40;31.00;;;;;;5044056;28;20414;-78
2022/06/13 08:39:23;;;;;;;28.03;10.60;;;19.20;31.20;;;;;;5052391;28;20428;-79
2022/06/13 08:41:51;;;;;;;23.25;11.32;;;19.40;31.10;;;;;;5048836;28;20403;-79
2022/06/13 08:44:52;;;;;;;23.15;11.00;;;19.60;31.70;;;;;;5054578;28;20417;-77
2022/06/13 08:47:37;;;;;;;24.97;11.47;;;19.70;29.40;;;;;;4985213;28;20405;-76
2022/06/13 08:50:30;;;;;;;19.33;10.95;;;19.40;31.40;;;;;;5054518;28;20399;-77
2022/06/13 08:53:12;;;;;;;28.38;11.57;;;19.40;30.00;;;;;;5051824;28;20397;-76
2022/06/13 08:55:47;;;;;;;28.47;11.80;;;19.70;28.20;;;;;;5053814;28;20427;-76
2022/06/13 08:58:31;;;;;;;22.23;9.90;;;20.20;27.60;;;;;;5059012;28;20413;-77
2022/06/13 09:01:07;;;;;;;22.77;9.60;;;20.80;22.40;;;;;;5069034;28;20394;-76
2022/06/13 09:04:00;;;;;;;21.65;10.10;;;21.20;23.30;;;;;;5054813;28;20399;-76
2022/06/13 09:06:40;;;;;;;23.70;10.55;;;20.80;23.20;;;;;;5060693;28;20444;-76
2022/06/13 09:09:34;;;;;;;22.35;9.38;;;20.60;26.50;;;;;;5031506;28;20403;-77
2022/06/13 09:12:08;;;;;;;14.90;6.30;;;20.20;22.90;;;;;;5042069;28;20485;-77
2022/06/13 09:14:38;;;;;;;20.02;6.30;;;19.90;19.20;;;;;;5048245;28;20405;-77
2022/06/13 09:17:11;;;;;;;20.87;7.00;;;19.70;19.80;;;;;;5056624;28;20409;-76
2022/06/13 09:19:54;;;;;;;18.52;7.18;;;19.40;21.70;;;;;;5061371;28;20488;-77
2022/06/13 09:22:28;;;;;;;19.10;7.90;;;19.10;23.20;;;;;;5052484;28;20563;-76
2022/06/13 09:25:02;;;;;;;18.42;7.50;;;18.70;25.00;;;;;;5062465;28;20753;-77
2022/06/13 09:27:58;;;;;;;19.92;8.32;;;18.60;27.50;;;;;;5056971;28;20993;-73
2022/06/13 09:30:31;;;;;;;22.05;8.88;;;18.50;29.00;;;;;;5038234;28;20488;-77
2022/06/13 09:33:05;;;;;;;17.83;7.20;;;18.30;29.50;;;;;;5067150;28;20432;-81
2022/06/13 09:35:38;;;;;;;22.93;8.23;;;18.20;30.70;;;;;;5056313;28;20402;-78
2022/06/13 09:38:25;;;;;;;22.02;8.82;;;18.10;30.70;;;;;;5065916;28;20402;-76
2022/06/13 09:41:05;;;;;;;28.92;9.13;;;18.20;30.00;;;;;;5039550;28;20419;-82
2022/06/13 09:43:40;;;;;;;22.52;9.00;;;18.40;30.20;;;;;;5038441;28;20404;-78
2022/06/13 09:46:31;;;;;;;27.70;9.52;;;18.70;29.00;;;;;;5063424;28;20920;-79
2022/06/13 09:49:17;;;;;;;25.55;10.48;;;18.60;29.20;;;;;;5047932;28;20871;-81
2022/06/13 09:52:05;;;;;;;26.38;9.70;;;18.50;29.30;;;;;;5061063;28;20421;-79
2022/06/13 09:54:40;;;;;;;23.83;9.52;;;18.80;28.70;;;;;;5057799;28;20400;-79
2022/06/13 09:57:27;;;;;;;20.73;9.00;;;18.90;26.30;;;;;;5069704;28;20418;-77
2022/06/13 09:59:56;;;;;;;24.02;8.50;;;18.70;27.60;;;;;;5063675;28;20419;-77
2022/06/13 10:02:34;;;;;;;18.77;7.37;;;19.10;27.10;;;;;;5035383;28;20415;-78
2022/06/13 10:05:21;;;;;;;17.05;7.50;;;19.30;22.60;;;;;;5041461;28;20417;-77
2022/06/13 10:08:11;;;;;;;17.20;6.50;;;19.40;20.30;;;;;;5026583;28;20454;-76
2022/06/13 10:11:03;;;;;;;12.48;6.03;;;19.90;21.50;;;;;;5058294;28;20399;-76
2022/06/13 10:13:52;;;;;;;14.07;6.22;;;20.60;19.30;;;;;;5044570;28;20535;-76
2022/06/13 10:16:48;;;;;;;15.82;5.60;;;21.10;18.30;;;;;;5054805;28;20406;-76
2022/06/13 10:19:41;;;;;;;9.45;4.60;;;21.50;17.20;;;;;;5060182;28;20511;-77
2022/06/13 10:22:59;;;;;;;12.82;5.10;;;21.60;15.10;;;;;;5053596;28;21005;-76
2022/06/13 10:25:45;;;;;;;14.90;5.38;;;21.50;15.50;;;;;;4969068;28;20965;-75
2022/06/13 10:28:29;;;;;;;10.85;5.82;;;21.20;16.60;;;;;;5041727;28;20516;-76
2022/06/13 10:31:31;;;;;;;15.00;5.50;;;20.20;17.80;;;;;;5068680;28;20392;-75
2022/06/13 10:34:11;;;;;;;15.30;5.50;;;20.10;18.10;;;;;;5054307;28;20409;-75
2022/06/13 10:36:54;;;;;;;17.98;5.50;;;19.90;19.00;;;;;;5047239;28;20386;-74
2022/06/13 10:39:22;;;;;;;16.10;5.10;;;20.30;19.00;;;;;;5071204;28;20391;-80
2022/06/13 10:41:54;;;;;;;8.27;3.33;;;20.50;17.50;;;;;;5060800;28;20743;-79
2022/06/13 10:44:20;;;;;;;14.48;4.07;;;19.80;17.20;;;;;;5045771;28;20409;-79
2022/06/13 10:47:04;;;;;;;14.20;4.63;;;19.30;17.80;;;;;;5040036;28;20433;-80
2022/06/13 10:49:42;;;;;;;12.13;3.88;;;19.40;18.30;;;;;;5050479;28;20454;-80
2022/06/13 10:52:14;;;;;;;13.15;4.40;;;19.60;17.60;;;;;;5055823;28;20420;-78
2022/06/13 10:54:45;;;;;;;13.50;4.10;;;20.10;17.50;;;;;;5038579;28;20420;-78
2022/06/13 10:57:20;;;;;;;9.80;3.75;;;20.30;15.60;;;;;;5047414;28;20780;-79
2022/06/13 11:00:08;;;;;;;11.35;4.30;;;20.60;15.00;;;;;;5033911;28;20415;-79
2022/06/13 11:02:34;;;;;;;9.57;3.45;;;20.50;15.10;;;;;;5056065;28;20412;-78
2022/06/13 11:05:22;;;;;;;10.63;3.40;;;20.70;15.50;;;;;;5056336;28;20417;-78
2022/06/13 11:07:53;;;;;;;9.02;3.20;;;20.50;16.10;;;;;;5062597;28;20420;-79
2022/06/13 11:10:28;;;;;;;9.57;3.50;;;20.30;15.70;;;;;;5042344;28;20415;-80
2022/06/13 11:12:55;;;;;;;10.32;3.47;;;20.50;15.10;;;;;;5054396;28;20437;-80
2022/06/13 11:24:39;;;;;;;9.73;2.47;;;20.70;13.50;;;;;;5066494;28;20414;-80
2022/06/13 11:30:25;;;;;;;9.32;3.00;;;19.90;16.00;;;;;;5064313;28;20459;-81
2022/06/13 11:33:09;;;;;;;6.35;2.65;;;19.90;16.10;;;;;;5061647;28;20405;-80
2022/06/13 11:35:40;;;;;;;5.63;2.90;;;19.90;17.20;;;;;;5058194;28;20413;-77
2022/06/13 11:38:30;;;;;;;12.37;3.30;;;19.90;17.10;;;;;;5051285;28;20489;-77
2022/06/13 11:41:04;;;;;;;8.80;2.70;;;20.20;16.50;;;;;;5022384;28;20774;-77
2022/06/13 11:43:58;;;;;;;12.15;2.65;;;20.40;15.00;;;;;;5053094;28;20466;-78
2022/06/13 11:46:23;;;;;;;5.90;2.13;;;20.40;14.70;;;;;;5050631;28;20412;-77
2022/06/13 11:48:50;;;;;;;5.77;1.80;;;20.50;13.70;;;;;;5061668;28;20738;-77
2022/06/13 11:51:26;;;;;;;3.67;2.60;;;20.50;13.40;;;;;;5040788;28;20407;-77
2022/06/13 11:53:55;;;;;;;3.70;1.65;;;20.90;13.20;;;;;;5053863;28;20421;-78
2022/06/13 11:56:25;;;;;;;6.68;2.05;;;20.90;10.90;;;;;;5056659;28;20413;-78
2022/06/13 11:58:54;;;;;;;2.72;1.50;;;20.60;11.30;;;;;;5052923;28;20411;-76
2022/06/13 12:01:30;;;;;;;5.72;1.80;;;20.40;11.20;;;;;;5049344;28;20416;-77
2022/06/13 12:04:11;;;;;;;4.82;1.80;;;20.40;12.60;;;;;;5029520;28;20410;-76
2022/06/13 12:06:46;;;;;;;7.32;1.90;;;21.00;12.70;;;;;;5056010;28;20411;-80
2022/06/13 12:09:26;;;;;;;6.78;2.30;;;21.60;13.00;;;;;;5063861;28;20912;-78
2022/06/13 12:11:58;;;;;;;5.60;2.10;;;21.70;12.30;;;;;;5069897;28;20512;-82
2022/06/13 12:14:29;;;;;;;5.82;1.70;;;22.10;10.60;;;;;;5044226;28;20496;-83
2022/06/13 12:17:01;;;;;;;4.88;1.67;;;22.10;9.60;;;;;;5039777;28;20429;-82
2022/06/13 12:19:34;;;;;;;4.75;1.50;;;21.20;9.70;;;;;;5056768;28;20839;-82
2022/06/13 12:22:20;;;;;;;2.97;1.70;;;21.20;10.20;;;;;;5046525;28;20438;-79
2022/06/13 12:24:59;;;;;;;6.68;1.90;;;21.20;10.80;;;;;;5066214;28;20435;-82
2022/06/13 12:27:44;;;;;;;5.13;2.03;;;21.30;12.20;;;;;;5064452;28;20409;-81
2022/06/13 12:30:18;;;;;;;2.70;1.33;;;21.40;10.10;;;;;;5055141;28;20424;-81
2022/06/13 12:32:52;;;;;;;4.35;1.70;;;21.00;10.90;;;;;;5028995;28;20957;-81
2022/06/13 12:35:40;;;;;;;10.23;1.70;;;21.50;10.50;;;;;;5058261;28;20437;-80
2022/06/13 12:38:19;;;;;;;9.10;1.55;;;21.50;12.00;;;;;;5065577;28;20456;-80
2022/06/13 12:40:52;;;;;;;6.20;1.85;;;20.90;13.20;;;;;;5063761;28;20397;-81
2022/06/13 12:43:47;;;;;;;4.15;1.65;;;20.50;12.90;;;;;;5043544;28;20405;-81
2022/06/13 12:46:30;;;;;;;4.40;1.40;;;20.20;13.10;;;;;;5067355;28;20407;-81
2022/06/13 12:49:02;;;;;;;3.50;1.35;;;20.00;12.60;;;;;;5057162;28;20418;-81
2022/06/13 12:51:33;;;;;;;6.45;1.20;;;19.90;12.20;;;;;;5067070;28;20406;-80
2022/06/13 12:54:18;;;;;;;4.57;1.60;;;20.00;12.50;;;;;;5088158;28;20404;-84
2022/06/13 12:57:05;;;;;;;7.93;1.40;;;20.20;12.60;;;;;;5046229;28;20499;-82
2022/06/13 12:59:50;;;;;;;4.72;1.40;;;20.20;12.00;;;;;;5029903;28;20423;-81
2022/06/13 13:02:27;;;;;;;3.47;1.50;;;20.20;12.70;;;;;;5057356;28;20419;-81
2022/06/13 13:05:20;;;;;;;4.90;1.40;;;20.00;12.50;;;;;;5063279;28;20431;-80
2022/06/13 13:08:04;;;;;;;4.32;1.50;;;20.00;13.00;;;;;;5059806;28;20397;-82
2022/06/13 13:10:58;;;;;;;3.50;1.40;;;20.10;13.00;;;;;;5062672;28;20393;-79
2022/06/13 13:14:03;;;;;;;4.95;1.50;;;20.40;11.50;;;;;;5061539;28;20405;-82
2022/06/13 13:16:55;;;;;;;5.30;1.55;;;20.60;10.80;;;;;;5063584;28;20824;-81
2022/06/13 13:19:51;;;;;;;5.95;1.50;;;21.20;10.20;;;;;;5057278;28;20409;-82
2022/06/13 13:22:43;;;;;;;5.50;1.55;;;21.50;8.90;;;;;;5043370;28;20420;-81
2022/06/13 13:25:37;;;;;;;4.22;1.67;;;21.30;9.80;;;;;;5033026;28;20411;-78
2022/06/13 13:28:32;;;;;;;8.73;1.45;;;21.90;8.10;;;;;;5060145;28;20813;-77
2022/06/13 13:31:34;;;;;;;3.80;1.70;;;22.60;6.80;;;;;;5054024;28;20480;-76
2022/06/13 13:34:19;;;;;;;4.07;1.55;;;22.50;7.30;;;;;;4967829;28;20414;-76
2022/06/13 13:37:19;;;;;;;2.35;1.30;;;23.10;6.90;;;;;;5053131;28;20520;-80
2022/06/13 13:39:48;;;;;;;4.05;1.50;;;23.50;7.60;;;;;;5049631;28;20460;-78
2022/06/13 13:42:24;;;;;;;4.70;1.50;;;22.10;8.40;;;;;;5055369;28;20424;-78
2022/06/13 13:45:00;;;;;;;3.33;1.48;;;21.40;9.60;;;;;;5074532;28;20446;-77
2022/06/13 13:47:28;;;;;;;2.80;1.50;;;21.10;10.20;;;;;;5056427;28;20377;-77
2022/06/13 13:50:08;;;;;;;4.63;2.08;;;20.90;10.40;;;;;;5063328;28;20401;-78